Time;durP1;ratioP1;P1;durP2;ratioP2;P2;SDS_P1;SDS_P2;PMS_P1;PMS_P2;Temp;Humidity;BMP_temperature;BMP_pressure;BME280_temperature;BME280_humidity;BME280_pressure;Samples;Min_cycle;Max_cycle;Signal;HPM_P1;HPM_P2
2023/09/15 00:00:29;;;;;;;;;;;;;;;;;;5108298;28;19916;-75
2023/09/15 00:02:56;;;;;;;;;;;;;;;;;;5094559;28;19961;-76
2023/09/15 00:05:22;;;;;;;;;;;;;;;;;;5100570;28;19914;-75
2023/09/15 00:07:47;;;;;;;;;;;;;;;;;;5114782;28;19907;-75
2023/09/15 00:10:14;;;;;;;;;;;;;;;;;;5114795;28;19908;-75
2023/09/15 00:12:40;;;;;;;;;;;;;;;;;;5106061;28;19914;-76
2023/09/15 00:15:07;;;;;;;;;;;;;;;;;;5114521;28;19908;-75
2023/09/15 00:17:34;;;;;;;;;;;;;;;;;;5114733;28;19908;-76
2023/09/15 00:20:00;;;;;;;;;;;;;;;;;;5097582;28;19914;-75
2023/09/15 00:22:26;;;;;;;;;;;;;;;;;;5114707;28;20316;-76
2023/09/15 00:24:52;;;;;;;;;;;;;;;;;;5114159;28;19912;-75
2023/09/15 00:27:18;;;;;;;;;;;;;;;;;;5114500;28;19929;-75
2023/09/15 00:29:44;;;;;;;;;;;;;;;;;;5097261;28;19916;-75
2023/09/15 00:32:10;;;;;;;;;;;;;;;;;;5114507;28;19908;-75
2023/09/15 00:34:36;;;;;;;;;;;;;;;;;;5113665;28;20298;-75
2023/09/15 00:37:02;;;;;;;;;;;;;;;;;;5105913;28;19912;-75
2023/09/15 00:39:28;;;;;;;;;;;;;;;;;;5099809;28;20008;-76
2023/09/15 00:41:54;;;;;;;;;;;;;;;;;;5114319;28;19969;-75
2023/09/15 00:44:20;;;;;;;;;;;;;;;;;;5105727;28;19914;-76
2023/09/15 00:46:46;;;;;;;;;;;;;;;;;;5114352;28;19908;-75
2023/09/15 00:49:13;;;;;;;;;;;;;;;;;;5114327;28;19916;-76
2023/09/15 00:51:39;;;;;;;;;;;;;;;;;;5114138;28;20007;-75
2023/09/15 00:54:08;;;;;;;;;;;;;;;;;;5113707;28;19958;-75
2023/09/15 00:56:34;;;;;;;;;;;;;;;;;;5114403;28;19908;-75
2023/09/15 00:59:00;;;;;;;;;;;;;;;;;;5113841;28;19908;-75
2023/09/15 01:01:26;;;;;;;;;;;;;;;;;;5114074;28;19912;-75
2023/09/15 01:03:53;;;;;;;;;;;;;;;;;;5094549;28;20345;-75
2023/09/15 01:06:19;;;;;;;;;;;;;;;;;;5093420;28;19908;-75
2023/09/15 01:08:46;;;;;;;;;;;;;;;;;;5102411;28;20271;-76
2023/09/15 01:11:12;;;;;;;;;;;;;;;;;;5100525;28;20442;-75
2023/09/15 01:13:38;;;;;;;;;;;;;;;;;;5101356;28;19946;-75
2023/09/15 01:16:04;;;;;;;;;;;;;;;;;;5113623;28;19915;-74
2023/09/15 01:18:30;;;;;;;;;;;;;;;;;;5113411;28;19977;-75
2023/09/15 01:20:56;;;;;;;;;;;;;;;;;;5102393;28;19999;-75
2023/09/15 01:23:21;;;;;;;;;;;;;;;;;;5092647;28;19909;-75
2023/09/15 01:25:48;;;;;;;;;;;;;;;;;;5092901;28;19912;-75
2023/09/15 01:28:14;;;;;;;;;;;;;;;;;;5097841;28;19912;-75
2023/09/15 01:30:40;;;;;;;;;;;;;;;;;;5100112;28;19936;-77
2023/09/15 01:33:06;;;;;;;;;;;;;;;;;;5091293;28;19908;-76
2023/09/15 01:35:32;;;;;;;;;;;;;;;;;;5108949;28;19965;-76
2023/09/15 01:37:59;;;;;;;;;;;;;;;;;;5104680;28;19912;-76
2023/09/15 01:40:25;;;;;;;;;;;;;;;;;;5095295;28;19908;-75
2023/09/15 01:42:54;;;;;;;;;;;;;;;;;;5124837;28;19915;-78
2023/09/15 01:45:23;;;;;;;;;;;;;;;;;;5127760;28;19914;-78
2023/09/15 01:47:48;;;;;;;;;;;;;;;;;;5109352;28;19915;-77
2023/09/15 01:50:14;;;;;;;;;;;;;;;;;;5113442;28;20290;-77
2023/09/15 01:52:40;;;;;;;;;;;;;;;;;;5086171;28;19912;-77
2023/09/15 01:55:06;;;;;;;;;;;;;;;;;;5104603;28;19953;-76
2023/09/15 01:57:32;;;;;;;;;;;;;;;;;;5113109;28;19955;-77
2023/09/15 01:59:58;;;;;;;;;;;;;;;;;;5104329;28;19939;-77
2023/09/15 02:02:24;;;;;;;;;;;;;;;;;;5089445;28;20294;-76
2023/09/15 02:04:50;;;;;;;;;;;;;;;;;;5112758;28;19907;-78
2023/09/15 02:07:16;;;;;;;;;;;;;;;;;;5080596;28;19908;-76
2023/09/15 02:09:42;;;;;;;;;;;;;;;;;;5092802;28;19912;-77
2023/09/15 02:12:08;;;;;;;;;;;;;;;;;;5112777;28;20379;-76
2023/09/15 02:14:34;;;;;;;;;;;;;;;;;;5112672;28;20289;-77
2023/09/15 02:17:00;;;;;;;;;;;;;;;;;;5112711;28;19916;-77
2023/09/15 02:19:26;;;;;;;;;;;;;;;;;;5094575;28;20336;-77
2023/09/15 02:21:52;;;;;;;;;;;;;;;;;;5086144;28;19912;-77
2023/09/15 02:24:18;;;;;;;;;;;;;;;;;;5094463;28;19912;-77
2023/09/15 02:26:44;;;;;;;;;;;;;;;;;;5096870;28;19908;-77
2023/09/15 02:29:13;;;;;;;;;;;;;;;;;;5106431;28;19920;-77
2023/09/15 02:31:40;;;;;;;;;;;;;;;;;;5094361;28;19915;-77
2023/09/15 02:34:05;;;;;;;;;;;;;;;;;;5103940;28;19960;-77
2023/09/15 02:36:31;;;;;;;;;;;;;;;;;;5094448;28;19908;-77
2023/09/15 02:38:57;;;;;;;;;;;;;;;;;;5082616;28;19920;-77
2023/09/15 02:41:23;;;;;;;;;;;;;;;;;;5112488;28;20450;-77
2023/09/15 02:43:49;;;;;;;;;;;;;;;;;;5093968;28;19929;-77
2023/09/15 02:46:15;;;;;;;;;;;;;;;;;;5103848;28;19911;-76
2023/09/15 02:48:41;;;;;;;;;;;;;;;;;;5094102;28;20006;-77
2023/09/15 02:51:07;;;;;;;;;;;;;;;;;;5112476;28;19908;-77
2023/09/15 02:53:33;;;;;;;;;;;;;;;;;;5103491;28;19908;-77
2023/09/15 02:56:08;;;;;;;;;;;;;;;;;;5093355;28;19967;-77
2023/09/15 02:58:34;;;;;;;;;;;;;;;;;;5116058;28;19908;-77
2023/09/15 03:01:00;;;;;;;;;;;;;;;;;;5107806;28;19916;-77
2023/09/15 03:03:26;;;;;;;;;;;;;;;;;;5098616;28;19985;-78
2023/09/15 03:05:52;;;;;;;;;;;;;;;;;;5096629;28;19998;-77
2023/09/15 03:08:18;;;;;;;;;;;;;;;;;;5077699;28;19913;-77
2023/09/15 03:10:43;;;;;;;;;;;;;;;;;;5077584;28;19958;-76
2023/09/15 03:13:11;;;;;;;;;;;;;;;;;;5090091;28;19912;-77
2023/09/15 03:15:39;;;;;;;;;;;;;;;;;;5099409;28;20287;-77
2023/09/15 03:18:05;;;;;;;;;;;;;;;;;;5089572;28;19915;-77
2023/09/15 03:20:31;;;;;;;;;;;;;;;;;;5097277;28;19911;-77
2023/09/15 03:22:59;;;;;;;;;;;;;;;;;;5089328;28;20367;-76
2023/09/15 03:25:24;;;;;;;;;;;;;;;;;;5115760;28;19912;-74
2023/09/15 03:27:50;;;;;;;;;;;;;;;;;;5105694;28;20413;-75
2023/09/15 03:30:17;;;;;;;;;;;;;;;;;;5082237;28;20438;-75
2023/09/15 03:32:43;;;;;;;;;;;;;;;;;;5097449;28;20346;-75
2023/09/15 03:35:09;;;;;;;;;;;;;;;;;;5102926;28;19944;-75
2023/09/15 03:37:35;;;;;;;;;;;;;;;;;;5095029;28;19999;-75
2023/09/15 03:40:00;;;;;;;;;;;;;;;;;;5096328;28;20422;-74
2023/09/15 03:42:26;;;;;;;;;;;;;;;;;;5115362;28;19915;-74
2023/09/15 03:44:52;;;;;;;;;;;;;;;;;;5115068;28;19912;-79
2023/09/15 03:47:18;;;;;;;;;;;;;;;;;;5115377;28;19907;-76
2023/09/15 03:49:44;;;;;;;;;;;;;;;;;;5115218;28;19984;-75
2023/09/15 03:52:10;;;;;;;;;;;;;;;;;;5115079;28;19915;-74
2023/09/15 03:54:36;;;;;;;;;;;;;;;;;;5106914;28;20407;-75
2023/09/15 03:57:03;;;;;;;;;;;;;;;;;;5104972;28;19970;-75
2023/09/15 03:59:29;;;;;;;;;;;;;;;;;;5115125;28;20346;-75
2023/09/15 04:01:55;;;;;;;;;;;;;;;;;;5104569;28;19908;-75
2023/09/15 04:04:20;;;;;;;;;;;;;;;;;;5094981;28;19958;-75
2023/09/15 04:06:47;;;;;;;;;;;;;;;;;;5094886;28;20390;-75
2023/09/15 04:09:13;;;;;;;;;;;;;;;;;;5106367;28;20615;-77
2023/09/15 04:11:43;;;;;;;;;;;;;;;;;;5088097;28;19919;-77
2023/09/15 04:14:09;;;;;;;;;;;;;;;;;;5115517;28;19991;-77
2023/09/15 04:16:37;;;;;;;;;;;;;;;;;;5105216;28;19957;-77
2023/09/15 04:19:03;;;;;;;;;;;;;;;;;;5116894;28;19912;-77
2023/09/15 04:21:29;;;;;;;;;;;;;;;;;;5120106;28;20336;-77
2023/09/15 04:23:55;;;;;;;;;;;;;;;;;;5103249;28;19911;-77
2023/09/15 04:26:21;;;;;;;;;;;;;;;;;;5098648;28;19952;-77
2023/09/15 04:28:47;;;;;;;;;;;;;;;;;;5115042;28;20010;-77
2023/09/15 04:31:15;;;;;;;;;;;;;;;;;;5115023;28;19953;-77
2023/09/15 04:33:44;;;;;;;;;;;;;;;;;;5087863;28;19908;-76
2023/09/15 04:36:10;;;;;;;;;;;;;;;;;;5088141;28;19914;-78
2023/09/15 04:38:36;;;;;;;;;;;;;;;;;;5096073;28;20037;-77
2023/09/15 04:41:02;;;;;;;;;;;;;;;;;;5113830;28;19914;-78
2023/09/15 04:43:30;;;;;;;;;;;;;;;;;;5096098;28;19919;-77
2023/09/15 04:45:56;;;;;;;;;;;;;;;;;;5096137;28;19912;-78
2023/09/15 04:48:22;;;;;;;;;;;;;;;;;;5105772;28;19964;-78
2023/09/15 04:51:05;;;;;;;;;;;;;;;;;;5119501;23;19934;-78
2023/09/15 04:53:37;;;;;;;;;;;;;;;;;;5103340;28;19961;-77
2023/09/15 04:56:03;;;;;;;;;;;;;;;;;;5101911;28;19908;-77
2023/09/15 04:58:29;;;;;;;;;;;;;;;;;;5099319;28;19919;-78
2023/09/15 05:00:59;;;;;;;;;;;;;;;;;;5101902;28;19981;-76
2023/09/15 05:03:27;;;;;;;;;;;;;;;;;;5099945;28;19915;-76
2023/09/15 05:05:59;;;;;;;;;;;;;;;;;;5108936;28;19915;-76
2023/09/15 05:08:25;;;;;;;;;;;;;;;;;;5100239;28;19970;-77
2023/09/15 05:10:51;;;;;;;;;;;;;;;;;;5093387;28;20285;-77
2023/09/15 05:13:17;;;;;;;;;;;;;;;;;;5111159;28;19908;-79
2023/09/15 05:15:46;;;;;;;;;;;;;;;;;;5107155;28;19971;-77
2023/09/15 05:21:04;;;;;;;;;;;;;;;;;;5076103;28;19915;-76
2023/09/15 05:23:30;;;;;;;;;;;;;;;;;;5097593;28;19965;-75
2023/09/15 05:25:56;;;;;;;;;;;;;;;;;;5103883;28;19908;-75
2023/09/15 05:28:22;;;;;;;;;;;;;;;;;;5106115;28;19962;-76
2023/09/15 05:30:48;;;;;;;;;;;;;;;;;;5102555;28;19912;-77
2023/09/15 05:33:19;;;;;;;;;;;;;;;;;;5111593;28;19908;-76
2023/09/15 05:35:45;;;;;;;;;;;;;;;;;;5094984;28;20347;-74
2023/09/15 05:38:11;;;;;;;;;;;;;;;;;;5096965;28;19915;-74
2023/09/15 05:40:38;;;;;;;;;;;;;;;;;;5096445;28;20539;-75
2023/09/15 05:43:04;;;;;;;;;;;;;;;;;;5100990;28;19999;-76
2023/09/15 05:45:30;;;;;;;;;;;;;;;;;;5092389;28;20359;-73
2023/09/15 05:47:56;;;;;;;;;;;;;;;;;;5092237;28;19965;-73
2023/09/15 05:50:23;;;;;;;;;;;;;;;;;;5091807;28;19916;-72
2023/09/15 05:52:49;;;;;;;;;;;;;;;;;;5099401;28;19908;-74
2023/09/15 05:55:15;;;;;;;;;;;;;;;;;;5110791;28;20367;-72
2023/09/15 05:57:41;;;;;;;;;;;;;;;;;;5101904;28;19912;-71
2023/09/15 06:00:07;;;;;;;;;;;;;;;;;;5092139;28;19959;-74
2023/09/15 06:02:33;;;;;;;;;;;;;;;;;;5099034;22;19956;-74
2023/09/15 06:04:59;;;;;;;;;;;;;;;;;;5011350;28;19909;-75
2023/09/15 06:07:25;;;;;;;;;;;;;;;;;;5012123;28;19963;-76
2023/09/15 06:09:51;;;;;;;;;;;;;;;;;;5013625;28;19917;-75
2023/09/15 06:12:17;;;;;;;;;;;;;;;;;;5028155;28;20419;-78
2023/09/15 06:14:43;;;;;;;;;;;;;;;;;;5040322;28;19913;-74
2023/09/15 06:17:09;;;;;;;;;;;;;;;;;;5039870;28;19909;-76
2023/09/15 06:19:35;;;;;;;;;;;;;;;;;;5032067;28;19916;-76
2023/09/15 06:22:00;;;;;;;;;;;;;;;;;;5031837;28;20385;-75
2023/09/15 06:24:26;;;;;;;;;;;;;;;;;;5038125;28;19912;-75
2023/09/15 06:26:54;;;;;;;;;;;;;;;;;;5024172;28;20351;-75
2023/09/15 06:29:21;;;;;;;;;;;;;;;;;;5031606;28;19920;-73
2023/09/15 06:31:47;;;;;;;;;;;;;;;;;;5039238;28;19908;-75
2023/09/15 06:34:13;;;;;;;;;;;;;;;;;;5031667;28;19967;-75
2023/09/15 06:36:39;;;;;;;;;;;;;;;;;;5039766;28;19909;-73
2023/09/15 06:41:51;;;;;;;;;;;;;;;;;;5016248;28;20343;-75
2023/09/15 06:44:17;;;;;;;;;;;;;;;;;;5031303;28;19909;-74
2023/09/15 06:46:43;;;;;;;;;;;;;;;;;;5031485;28;19913;-74
2023/09/15 06:49:09;;;;;;;;;;;;;;;;;;5013739;28;19923;-73
2023/09/15 06:51:35;;;;;;;;;;;;;;;;;;5031411;28;19909;-74
2023/09/15 06:54:01;;;;;;;;;;;;;;;;;;5031424;28;19940;-74
2023/09/15 06:56:27;;;;;;;;;;;;;;;;;;5031584;28;19916;-73
2023/09/15 06:58:53;;;;;;;;;;;;;;;;;;5031604;28;19909;-73
2023/09/15 07:01:19;;;;;;;;;;;;;;;;;;5021751;28;20072;-75
2023/09/15 07:03:45;;;;;;;;;;;;;;;;;;5039354;28;19917;-75
2023/09/15 07:06:12;;;;;;;;;;;;;;;;;;5031582;28;19963;-74
2023/09/15 07:08:38;;;;;;;;;;;;;;;;;;5039807;28;19924;-75
2023/09/15 07:11:04;;;;;;;;;;;;;;;;;;5039512;28;19910;-73
2023/09/15 07:13:30;;;;;;;;;;;;;;;;;;5031114;28;19910;-72
2023/09/15 07:15:56;;;;;;;;;;;;;;;;;;5031162;28;20009;-72
2023/09/15 07:18:22;;;;;;;;;;;;;;;;;;5031146;28;19909;-72
2023/09/15 07:20:47;;;;;;;;;;;;;;;;;;5031019;28;20376;-72
2023/09/15 07:23:13;;;;;;;;;;;;;;;;;;5030768;28;19916;-71
2023/09/15 07:25:39;;;;;;;;;;;;;;;;;;5030952;28;20315;-72
2023/09/15 07:28:05;;;;;;;;;;;;;;;;;;5030166;28;19929;-72
2023/09/15 07:30:31;;;;;;;;;;;;;;;;;;5030050;28;19943;-72
2023/09/15 07:32:57;;;;;;;;;;;;;;;;;;5029858;28;19909;-72
2023/09/15 07:35:23;;;;;;;;;;;;;;;;;;5030026;28;19936;-72
2023/09/15 07:37:49;;;;;;;;;;;;;;;;;;5029966;28;19909;-72
2023/09/15 07:40:17;;;;;;;;;;;;;;;;;;5030079;28;19909;-72
2023/09/15 07:42:43;;;;;;;;;;;;;;;;;;5030912;28;19913;-72
2023/09/15 07:45:09;;;;;;;;;;;;;;;;;;5033481;28;19913;-71
2023/09/15 07:47:35;;;;;;;;;;;;;;;;;;5034444;28;19932;-72
2023/09/15 07:50:02;;;;;;;;;;;;;;;;;;5034249;28;20015;-72
2023/09/15 07:52:29;;;;;;;;;;;;;;;;;;5036700;28;19971;-72
2023/09/15 07:54:55;;;;;;;;;;;;;;;;;;5034060;28;19920;-72
2023/09/15 07:57:21;;;;;;;;;;;;;;;;;;5033275;28;19917;-72
2023/09/15 07:59:46;;;;;;;;;;;;;;;;;;5034137;28;19932;-71
2023/09/15 08:02:13;;;;;;;;;;;;;;;;;;5038352;28;20411;-70
2023/09/15 08:04:39;;;;;;;;;;;;;;;;;;5016272;28;19963;-71
2023/09/15 08:07:06;;;;;;;;;;;;;;;;;;5033922;28;19910;-71
2023/09/15 08:09:32;;;;;;;;;;;;;;;;;;5033993;28;19936;-72
2023/09/15 08:12:00;;;;;;;;;;;;;;;;;;5033910;28;20369;-72
2023/09/15 08:14:25;;;;;;;;;;;;;;;;;;5033581;28;19909;-72
2023/09/15 08:16:51;;;;;;;;;;;;;;;;;;5018764;28;20380;-71
2023/09/15 08:19:17;;;;;;;;;;;;;;;;;;5033597;28;20386;-71
2023/09/15 08:21:43;;;;;;;;;;;;;;;;;;5041864;28;19913;-72
2023/09/15 08:24:09;;;;;;;;;;;;;;;;;;5033201;28;19916;-73
2023/09/15 08:26:35;;;;;;;;;;;;;;;;;;5015306;28;20373;-72
2023/09/15 08:29:01;;;;;;;;;;;;;;;;;;5033344;28;19921;-71
2023/09/15 08:31:28;;;;;;;;;;;;;;;;;;5015312;28;19909;-73
2023/09/15 08:33:54;;;;;;;;;;;;;;;;;;5015070;28;19909;-73
2023/09/15 08:36:20;;;;;;;;;;;;;;;;;;5015569;28;20412;-72
2023/09/15 08:38:46;;;;;;;;;;;;;;;;;;5033473;28;19919;-72
2023/09/15 08:41:12;;;;;;;;;;;;;;;;;;5037604;28;19978;-72
2023/09/15 08:43:38;;;;;;;;;;;;;;;;;;5015868;28;20335;-71
2023/09/15 08:46:05;;;;;;;;;;;;;;;;;;5033023;28;20431;-71
2023/09/15 08:48:31;;;;;;;;;;;;;;;;;;5033201;28;20046;-71
2023/09/15 08:50:57;;;;;;;;;;;;;;;;;;5033267;28;20039;-71
2023/09/15 08:53:23;;;;;;;;;;;;;;;;;;5032777;28;20407;-71
2023/09/15 08:55:49;;;;;;;;;;;;;;;;;;5032514;28;19913;-71
2023/09/15 08:58:15;;;;;;;;;;;;;;;;;;5033180;28;20002;-72
2023/09/15 09:00:42;;;;;;;;;;;;;;;;;;5032894;28;19917;-72
2023/09/15 09:03:07;;;;;;;;;;;;;;;;;;5032696;28;19928;-71
2023/09/15 09:05:33;;;;;;;;;;;;;;;;;;5032767;28;19909;-72
2023/09/15 09:07:59;;;;;;;;;;;;;;;;;;5041186;28;19916;-73
2023/09/15 09:10:25;;;;;;;;;;;;;;;;;;5032778;28;19913;-73
2023/09/15 09:12:51;;;;;;;;;;;;;;;;;;5032628;28;20367;-72
2023/09/15 09:15:17;;;;;;;;;;;;;;;;;;5040765;28;20368;-73
2023/09/15 09:17:43;;;;;;;;;;;;;;;;;;5032865;28;19919;-73
2023/09/15 09:20:09;;;;;;;;;;;;;;;;;;5032764;28;19941;-72
2023/09/15 09:22:35;;;;;;;;;;;;;;;;;;5032883;28;19948;-73
2023/09/15 09:25:02;;;;;;;;;;;;;;;;;;5032336;28;19967;-73
2023/09/15 09:27:28;;;;;;;;;;;;;;;;;;5014757;28;19951;-72
2023/09/15 09:29:54;;;;;;;;;;;;;;;;;;5032377;28;19964;-72
2023/09/15 09:32:20;;;;;;;;;;;;;;;;;;5032391;28;19931;-72
2023/09/15 09:34:46;;;;;;;;;;;;;;;;;;5032087;28;19920;-72
2023/09/15 09:37:12;;;;;;;;;;;;;;;;;;5014791;28;19916;-72
2023/09/15 09:39:38;;;;;;;;;;;;;;;;;;5032276;28;20388;-72
2023/09/15 09:42:04;;;;;;;;;;;;;;;;;;5032180;28;19916;-72
2023/09/15 09:44:31;;;;;;;;;;;;;;;;;;5032040;28;19932;-72
2023/09/15 09:46:57;;;;;;;;;;;;;;;;;;5032395;28;19932;-72
2023/09/15 09:49:23;;;;;;;;;;;;;;;;;;5032267;28;20370;-72
2023/09/15 09:51:49;;;;;;;;;;;;;;;;;;5032040;28;20003;-72
2023/09/15 09:54:16;;;;;;;;;;;;;;;;;;5031883;28;19909;-72
2023/09/15 09:56:41;;;;;;;;;;;;;;;;;;5031617;28;19967;-71
2023/09/15 09:59:08;;;;;;;;;;;;;;;;;;5032084;28;19913;-72
2023/09/15 10:01:34;;;;;;;;;;;;;;;;;;5031925;28;19946;-72
2023/09/15 10:04:00;;;;;;;;;;;;;;;;;;5031876;28;19920;-71
2023/09/15 10:06:26;;;;;;;;;;;;;;;;;;5011348;28;20373;-71
2023/09/15 10:08:54;;;;;;;;;;;;;;;;;;5030197;28;19913;-71
2023/09/15 10:11:20;;;;;;;;;;;;;;;;;;5023428;28;19920;-73
2023/09/15 10:13:46;;;;;;;;;;;;;;;;;;5022166;28;20004;-72
2023/09/15 10:16:12;;;;;;;;;;;;;;;;;;5016267;28;20523;-72
2023/09/15 10:18:38;;;;;;;;;;;;;;;;;;5031411;28;20388;-72
2023/09/15 10:21:04;;;;;;;;;;;;;;;;;;5013765;28;20054;-72
2023/09/15 10:23:30;;;;;;;;;;;;;;;;;;5031278;28;19971;-72
2023/09/15 10:25:56;;;;;;;;;;;;;;;;;;5031551;28;20394;-72
2023/09/15 10:28:22;;;;;;;;;;;;;;;;;;5031673;28;19916;-72
2023/09/15 10:30:47;;;;;;;;;;;;;;;;;;5031732;28;20014;-72
2023/09/15 10:33:13;;;;;;;;;;;;;;;;;;5013763;28;19910;-72
2023/09/15 10:35:39;;;;;;;;;;;;;;;;;;5031371;28;19916;-71
2023/09/15 10:38:05;;;;;;;;;;;;;;;;;;5013768;28;19955;-71
2023/09/15 10:40:31;;;;;;;;;;;;;;;;;;5031426;28;19913;-72
2023/09/15 10:42:57;;;;;;;;;;;;;;;;;;5031261;28;19936;-72
2023/09/15 10:45:23;;;;;;;;;;;;;;;;;;5031472;28;19963;-71
2023/09/15 10:47:49;;;;;;;;;;;;;;;;;;5031526;28;19979;-72
2023/09/15 10:50:15;;;;;;;;;;;;;;;;;;5031551;28;19914;-72
2023/09/15 10:52:41;;;;;;;;;;;;;;;;;;5031273;28;19998;-72
2023/09/15 10:55:07;;;;;;;;;;;;;;;;;;5031295;28;19909;-73
2023/09/15 10:57:32;;;;;;;;;;;;;;;;;;5031327;28;19963;-72
2023/09/15 10:59:58;;;;;;;;;;;;;;;;;;5031340;28;19920;-72
2023/09/15 11:02:24;;;;;;;;;;;;;;;;;;5031342;28;19917;-71
2023/09/15 11:04:50;;;;;;;;;;;;;;;;;;5013542;28;19916;-71
2023/09/15 11:07:16;;;;;;;;;;;;;;;;;;5031203;28;19909;-72
2023/09/15 11:09:42;;;;;;;;;;;;;;;;;;5030944;28;19920;-72
2023/09/15 11:12:08;;;;;;;;;;;;;;;;;;5031219;28;20419;-73
2023/09/15 11:14:34;;;;;;;;;;;;;;;;;;5030772;28;19916;-71
2023/09/15 11:17:00;;;;;;;;;;;;;;;;;;5031105;28;19915;-71
2023/09/15 11:19:29;;;;;;;;;;;;;;;;;;5034351;28;19909;-72
2023/09/15 11:21:54;;;;;;;;;;;;;;;;;;5034841;28;19916;-72
2023/09/15 11:24:20;;;;;;;;;;;;;;;;;;5016897;28;19909;-71
2023/09/15 11:26:47;;;;;;;;;;;;;;;;;;5017160;28;19912;-72
2023/09/15 11:29:13;;;;;;;;;;;;;;;;;;5035073;28;19914;-72
2023/09/15 11:31:38;;;;;;;;;;;;;;;;;;5032758;28;19967;-73
2023/09/15 11:34:05;;;;;;;;;;;;;;;;;;5014319;28;19959;-73
2023/09/15 11:36:35;;;;;;;;;;;;;;;;;;5042175;28;20004;-71
2023/09/15 11:39:04;;;;;;;;;;;;;;;;;;5034926;28;19924;-72
2023/09/15 11:41:30;;;;;;;;;;;;;;;;;;5034733;28;19916;-72
2023/09/15 11:43:56;;;;;;;;;;;;;;;;;;5032968;28;19935;-72
2023/09/15 11:46:22;;;;;;;;;;;;;;;;;;5034047;28;20010;-72
2023/09/15 11:48:48;;;;;;;;;;;;;;;;;;5034676;28;19960;-73
2023/09/15 11:51:14;;;;;;;;;;;;;;;;;;5034668;28;20442;-72
2023/09/15 11:53:40;;;;;;;;;;;;;;;;;;5034587;28;20419;-73
2023/09/15 11:56:06;;;;;;;;;;;;;;;;;;5016652;28;20016;-73
2023/09/15 11:58:32;;;;;;;;;;;;;;;;;;5034623;28;19909;-72
2023/09/15 12:00:58;;;;;;;;;;;;;;;;;;5034638;28;19909;-72
2023/09/15 12:03:26;;;;;;;;;;;;;;;;;;5091297;22;19930;-73
2023/09/15 12:05:52;;;;;;;;;;;;;;;;;;5096675;28;19912;-75
2023/09/15 12:08:18;;;;;;;;;;;;;;;;;;5096373;28;19915;-74
2023/09/15 12:10:44;;;;;;;;;;;;;;;;;;5095851;28;19922;-75
2023/09/15 12:13:10;;;;;;;;;;;;;;;;;;5094317;28;19953;-75
2023/09/15 12:15:36;;;;;;;;;;;;;;;;;;5094344;28;19951;-75
2023/09/15 12:18:02;;;;;;;;;;;;;;;;;;5094504;28;19909;-75
2023/09/15 12:20:28;;;;;;;;;;;;;;;;;;5094467;28;19909;-75
2023/09/15 12:22:54;;;;;;;;;;;;;;;;;;5092755;28;19915;-74
2023/09/15 12:25:20;;;;;;;;;;;;;;;;;;5094076;28;20005;-75
2023/09/15 12:27:46;;;;;;;;;;;;;;;;;;5092875;28;20011;-75
2023/09/15 12:30:12;;;;;;;;;;;;;;;;;;5091941;28;20440;-75
2023/09/15 12:32:38;;;;;;;;;;;;;;;;;;5094029;28;20311;-75
2023/09/15 12:35:05;;;;;;;;;;;;;;;;;;5093930;28;19908;-77
2023/09/15 12:37:31;;;;;;;;;;;;;;;;;;5094052;28;19911;-75
2023/09/15 12:39:57;;;;;;;;;;;;;;;;;;5093919;28;20440;-75
2023/09/15 12:42:22;;;;;;;;;;;;;;;;;;5093701;28;19948;-75
2023/09/15 12:44:48;;;;;;;;;;;;;;;;;;5092275;28;20437;-76
2023/09/15 12:47:14;;;;;;;;;;;;;;;;;;5093790;28;19914;-77
2023/09/15 12:49:40;;;;;;;;;;;;;;;;;;5093588;28;20007;-75
2023/09/15 12:52:06;;;;;;;;;;;;;;;;;;5092224;28;20706;-75
2023/09/15 12:54:32;;;;;;;;;;;;;;;;;;5093559;28;19912;-75
2023/09/15 12:56:58;;;;;;;;;;;;;;;;;;5093411;28;19908;-75
2023/09/15 12:59:24;;;;;;;;;;;;;;;;;;5093648;28;19993;-75
2023/09/15 13:01:50;;;;;;;;;;;;;;;;;;5093713;28;20264;-75
2023/09/15 13:04:16;;;;;;;;;;;;;;;;;;5091834;28;19920;-76
2023/09/15 13:06:41;;;;;;;;;;;;;;;;;;5093373;28;20379;-76
2023/09/15 13:09:09;;;;;;;;;;;;;;;;;;5093514;28;19912;-76
2023/09/15 13:11:35;;;;;;;;;;;;;;;;;;5093556;28;19913;-75
2023/09/15 13:14:01;;;;;;;;;;;;;;;;;;5093108;28;19904;-74
2023/09/15 13:16:27;;;;;;;;;;;;;;;;;;5093271;28;20367;-76
2023/09/15 13:18:53;;;;;;;;;;;;;;;;;;5093168;28;19904;-76
2023/09/15 13:21:18;;;;;;;;;;;;;;;;;;5093202;28;19908;-76
2023/09/15 13:23:44;;;;;;;;;;;;;;;;;;5093020;28;20008;-76
2023/09/15 13:26:11;;;;;;;;;;;;;;;;;;5093335;28;19908;-76
2023/09/15 13:28:37;;;;;;;;;;;;;;;;;;5093280;28;19908;-76
2023/09/15 13:31:03;;;;;;;;;;;;;;;;;;5093012;28;20236;-75
2023/09/15 13:33:29;;;;;;;;;;;;;;;;;;5092481;28;19915;-75
2023/09/15 13:35:55;;;;;;;;;;;;;;;;;;5092599;28;20306;-75
2023/09/15 13:38:21;;;;;;;;;;;;;;;;;;5092924;28;20079;-75
2023/09/15 13:40:47;;;;;;;;;;;;;;;;;;5091336;28;20279;-75
2023/09/15 13:43:13;;;;;;;;;;;;;;;;;;5092457;28;19908;-75
2023/09/15 13:45:39;;;;;;;;;;;;;;;;;;5092706;28;19908;-76
2023/09/15 13:48:05;;;;;;;;;;;;;;;;;;5092722;28;20367;-76
2023/09/15 13:50:30;;;;;;;;;;;;;;;;;;5092409;28;19920;-75
2023/09/15 13:52:56;;;;;;;;;;;;;;;;;;5092480;28;19916;-76
2023/09/15 13:55:22;;;;;;;;;;;;;;;;;;5092251;28;19908;-77
2023/09/15 13:57:48;;;;;;;;;;;;;;;;;;5092600;28;19908;-75
2023/09/15 14:00:14;;;;;;;;;;;;;;;;;;5092325;28;20587;-76
2023/09/15 14:02:41;;;;;;;;;;;;;;;;;;5090902;28;19963;-75
2023/09/15 14:05:07;;;;;;;;;;;;;;;;;;5091969;28;19908;-77
2023/09/15 14:07:33;;;;;;;;;;;;;;;;;;5090819;28;20430;-76
2023/09/15 14:09:59;;;;;;;;;;;;;;;;;;5092160;28;19912;-75
2023/09/15 14:12:27;;;;;;;;;;;;;;;;;;5091468;28;20297;-75
2023/09/15 14:14:53;;;;;;;;;;;;;;;;;;5091818;28;20365;-75
2023/09/15 14:17:19;;;;;;;;;;;;;;;;;;5092009;28;19995;-76
2023/09/15 14:19:45;;;;;;;;;;;;;;;;;;5091780;28;19908;-75
2023/09/15 14:22:11;;;;;;;;;;;;;;;;;;5091842;28;20321;-74
2023/09/15 14:24:37;;;;;;;;;;;;;;;;;;5091770;28;19977;-74
2023/09/15 14:27:03;;;;;;;;;;;;;;;;;;5092275;28;19908;-75
2023/09/15 14:29:29;;;;;;;;;;;;;;;;;;5092086;28;20268;-75
2023/09/15 14:31:55;;;;;;;;;;;;;;;;;;5092748;28;20385;-75
2023/09/15 14:34:21;;;;;;;;;;;;;;;;;;5091607;28;19958;-74
2023/09/15 14:36:47;;;;;;;;;;;;;;;;;;5090896;28;19931;-75
2023/09/15 14:39:14;;;;;;;;;;;;;;;;;;5094457;28;19924;-75
2023/09/15 14:41:41;;;;;;;;;;;;;;;;;;5095097;28;19919;-74
2023/09/15 14:44:07;;;;;;;;;;;;;;;;;;5094906;28;19904;-74
2023/09/15 14:46:33;;;;;;;;;;;;;;;;;;5091571;28;19924;-76
2023/09/15 14:48:59;;;;;;;;;;;;;;;;;;5091711;28;19966;-74
2023/09/15 14:51:25;;;;;;;;;;;;;;;;;;5090686;28;19952;-75
2023/09/15 14:53:51;;;;;;;;;;;;;;;;;;5092997;28;19911;-75
2023/09/15 14:56:17;;;;;;;;;;;;;;;;;;5094572;28;20020;-75
2023/09/15 14:58:44;;;;;;;;;;;;;;;;;;5095831;28;19908;-76
2023/09/15 15:01:10;;;;;;;;;;;;;;;;;;5094525;28;19938;-76
2023/09/15 15:03:36;;;;;;;;;;;;;;;;;;5095278;28;19939;-74
2023/09/15 15:06:01;;;;;;;;;;;;;;;;;;5094707;28;19908;-75
2023/09/15 15:08:27;;;;;;;;;;;;;;;;;;5095877;28;19904;-76
2023/09/15 15:10:53;;;;;;;;;;;;;;;;;;5095562;28;19908;-74
2023/09/15 15:13:19;;;;;;;;;;;;;;;;;;5095480;28;19908;-75
2023/09/15 15:15:45;;;;;;;;;;;;;;;;;;5095686;28;20378;-76
2023/09/15 15:18:12;;;;;;;;;;;;;;;;;;5094385;28;19908;-75
2023/09/15 15:20:38;;;;;;;;;;;;;;;;;;5095714;28;19908;-74
2023/09/15 15:23:04;;;;;;;;;;;;;;;;;;5093880;28;19908;-74
2023/09/15 15:25:30;;;;;;;;;;;;;;;;;;5095499;28;19908;-76
2023/09/15 15:27:56;;;;;;;;;;;;;;;;;;5095280;28;19956;-74
2023/09/15 15:30:24;;;;;;;;;;;;;;;;;;5095519;28;19966;-75
2023/09/15 15:32:50;;;;;;;;;;;;;;;;;;5095345;28;19915;-76
2023/09/15 15:35:16;;;;;;;;;;;;;;;;;;5095106;28;19908;-76
2023/09/15 15:37:41;;;;;;;;;;;;;;;;;;5095005;28;20295;-74
2023/09/15 15:40:07;;;;;;;;;;;;;;;;;;5095135;28;19908;-75
2023/09/15 15:42:33;;;;;;;;;;;;;;;;;;5094750;28;20383;-76
2023/09/15 15:44:59;;;;;;;;;;;;;;;;;;5094981;28;19908;-76
2023/09/15 15:47:25;;;;;;;;;;;;;;;;;;5095105;28;20589;-76
2023/09/15 15:49:51;;;;;;;;;;;;;;;;;;5095071;28;19912;-76
2023/09/15 15:52:17;;;;;;;;;;;;;;;;;;5094547;28;19962;-75
2023/09/15 15:54:43;;;;;;;;;;;;;;;;;;5094730;28;19912;-75
2023/09/15 15:57:09;;;;;;;;;;;;;;;;;;5094768;28;19908;-75
2023/09/15 15:59:36;;;;;;;;;;;;;;;;;;5094761;28;19931;-75
2023/09/15 16:02:02;;;;;;;;;;;;;;;;;;5094578;28;19919;-75
2023/09/15 16:04:28;;;;;;;;;;;;;;;;;;5092872;28;19916;-75
2023/09/15 16:06:53;;;;;;;;;;;;;;;;;;5094482;28;20336;-73
2023/09/15 16:09:20;;;;;;;;;;;;;;;;;;5094486;28;20385;-74
2023/09/15 16:11:48;;;;;;;;;;;;;;;;;;5093235;28;19908;-74
2023/09/15 16:14:14;;;;;;;;;;;;;;;;;;5093991;28;19940;-74
2023/09/15 16:16:40;;;;;;;;;;;;;;;;;;5094188;28;19971;-76
2023/09/15 16:19:06;;;;;;;;;;;;;;;;;;5093049;28;19912;-74
2023/09/15 16:21:35;;;;;;;;;;;;;;;;;;5094337;28;19909;-74
2023/09/15 16:24:01;;;;;;;;;;;;;;;;;;5093268;28;19908;-76
2023/09/15 16:26:26;;;;;;;;;;;;;;;;;;5093103;28;19919;-77
2023/09/15 16:28:53;;;;;;;;;;;;;;;;;;5093449;28;19912;-73
2023/09/15 16:31:18;;;;;;;;;;;;;;;;;;5094110;28;19951;-73
2023/09/15 16:33:46;;;;;;;;;;;;;;;;;;5093816;28;19904;-73
2023/09/15 16:36:12;;;;;;;;;;;;;;;;;;5094303;28;19908;-73
2023/09/15 16:38:38;;;;;;;;;;;;;;;;;;5094785;28;19926;-73
2023/09/15 16:41:04;;;;;;;;;;;;;;;;;;5095411;28;19919;-72
2023/09/15 16:43:31;;;;;;;;;;;;;;;;;;5094235;28;19904;-74